Airfield :
LOGIN :

Register | Disclaimer

   EN    FR    IT 

 










Legend :    VFR   Marginal VFR   IFR   Intensive IFR   Very Intensive IFR
Visi :
Ceiling :
>= 8 km
>= 3000ft
5 to 8 km
1000 to 3000 ft
1500m to 5 km
500 to 1000 ft
800 to 1500m
200 to 500 ft
< 800m
< 200 ft
Symbols :   Thunderstorms  Fog  Heavy snow  Heavy precipitations  Wind > 20 kt
SIGMETs :     Misc.  Thunderstorms  Icing  Turbulence  Mountain Waves  Volcanic Ashes






- Airport Elevation : 36 ft
- IATA code : LTQ


LFAT - Le Touquet

CURRENT METAR :
  • 152300Z AUTO 15005KT CAVOK 05/04 Q1003

EXPIRED METARs :
  • 152230Z AUTO 15005KT CAVOK 06/04 Q1003
  • 152200Z AUTO 15005KT CAVOK 06/04 Q1003
  • 152130Z AUTO 16006KT CAVOK 06/04 Q1003
  • 152100Z AUTO 16007KT CAVOK 06/04 Q1003
  • 152030Z AUTO 16006KT 130V190 CAVOK 06/03 Q1003

TAF TAF LFAT
Valid from the 15 at 15:00 until the 16 at 00:00 UTC


151400Z 1515/1524 22015G25KT 9999 SCT030
TEMPO 1515/1518 24020G35KT SHRA BKN030CB
ATIS : +33 3 21 06 62 84



MET'MAP, your aeronautical weather chart ! - Copyright ORBIFLY December 2007 - Disclaimer

ORBIFLY MET'MAP TEAM :

Programming & Development : Alexandra Zaïnal
Concept & original design : Baudouin d'Aumeries
Assistance for programming : Marc-Olivier Méhu
Technical & hardware support : Manuel Goepfert

Contact : metmap@orbifly.com




SOURCES & CREDITS :

   NOAA